This is the latest recevied weather packets stored in our database for station/object OH6GPB-4. If no packets are shown the sender has not sent any weather packets the latest 10 day(s).
| Time | Temp. | Humidity | Pressure | Rain* | Wind** | Luminosity | Snow |
|---|---|---|---|---|---|---|---|
| 1777852049 | 0° C | 83% | 1004.9 hPa | 0 mm | - | 0 W/m² | - |
| 1777850251 | 0° C | 82% | 1005.1 hPa | 0 mm | - | 0 W/m² | - |
| 1777848445 | 0.56° C | 81% | 1005.1 hPa | 0 mm | - | 0 W/m² | - |
| 1777846647 | 1.11° C | 79% | 1005.3 hPa | 0 mm | - | 0 W/m² | - |
| 1777844847 | 1.67° C | 79% | 1005.4 hPa | 0 mm | - | 0 W/m² | - |
| 1777843045 | 1.67° C | 78% | 1005.7 hPa | 0 mm | - | 0 W/m² | - |
| 1777841258 | 2.22° C | 77% | 1005.8 hPa | 0 mm | - | 0 W/m² | - |
| 1777839441 | 2.78° C | 74% | 1005.9 hPa | 0 mm | - | 0 W/m² | - |
| 1777837657 | 3.89° C | 71% | 1006.3 hPa | 0 mm | - | 0 W/m² | - |
| 1777835841 | 5° C | 68% | 1006.1 hPa | 0 mm | - | 0 W/m² | - |
| 1777834061 | 5.56° C | 63% | 1006 hPa | 0 mm | - | 9 W/m² | - |
| 1777832258 | 6.67° C | 56% | 1006 hPa | 0 mm | - | 30 W/m² | - |
| 1777830444 | 7.22° C | 53% | 1005.8 hPa | 0 mm | - | 104 W/m² | - |
| 1777828659 | 7.22° C | 52% | 1005.8 hPa | 0 mm | - | 67 W/m² | - |
| 1777826843 | 7.22° C | 51% | 1005.9 hPa | 0 mm | - | 162 W/m² | - |
| 1777825053 | 7.78° C | 46% | 1006 hPa | 0 mm | - | 100 W/m² | - |
| 1777823247 | 8.33° C | 39% | 1006 hPa | 0 mm | - | 171 W/m² | - |
| 1777821444 | 8.89° C | 38% | 1006.1 hPa | 0 mm | - | 40 W/m² | - |
| 1777819660 | 8.89° C | 36% | 1006.2 hPa | 0 mm | - | 56 W/m² | - |
| 1777817856 | 8.33° C | 38% | 1006.4 hPa | 0 mm | - | 44 W/m² | - |
| 1777816040 | 8.89° C | 39% | 1006.4 hPa | 0 mm | - | 137 W/m² | - |
| 1777814246 | 8.89° C | 41% | 1006.3 hPa | 0 mm | - | 573 W/m² | - |
| 1777812445 | 8.89° C | 42% | 1006.4 hPa | 0 mm | - | 638 W/m² | - |
| 1777810642 | 8.33° C | 42% | 1006.4 hPa | 0 mm | - | 675 W/m² | - |
| 1777808843 | 7.22° C | 44% | 1006.4 hPa | 0 mm | - | 700 W/m² | - |
* Rain latest hour (hover to see other rain measurements)
** Current wind speed in m/s (hover to see current wind gust speed)